createdAt,value
2023-03-27T00:01:01.577Z,3.47
2023-03-27T00:03:29.854Z,3.70
2023-03-27T00:06:01.477Z,3.88
2023-03-27T00:08:29.384Z,3.97
2023-03-27T00:10:57.188Z,3.72
2023-03-27T00:13:24.251Z,3.97
2023-03-27T00:15:51.205Z,3.05
2023-03-27T00:18:18.064Z,3.50
2023-03-27T00:20:44.805Z,3.92
2023-03-27T00:23:13.261Z,3.88
2023-03-27T00:25:40.913Z,3.90
2023-03-27T00:28:08.470Z,3.80
2023-03-27T00:30:36.159Z,3.83
2023-03-27T00:33:03.138Z,4.00
2023-03-27T00:35:30.453Z,3.75
2023-03-27T00:37:58.965Z,4.13
2023-03-27T00:40:26.018Z,4.03
2023-03-27T00:42:57.723Z,4.10
2023-03-27T00:45:28.845Z,3.50
2023-03-27T00:48:04.625Z,3.88
2023-03-27T00:50:36.993Z,3.63
2023-03-27T00:53:09.161Z,4.25
2023-03-27T00:55:41.281Z,3.53
2023-03-27T00:58:13.594Z,4.15
2023-03-27T01:00:40.522Z,4.07
2023-03-27T01:03:08.893Z,4.00
2023-03-27T01:05:37.175Z,3.75
2023-03-27T01:08:04.723Z,3.90
2023-03-27T01:10:50.481Z,3.90
2023-03-27T01:13:44.459Z,3.72
2023-03-27T01:16:26.003Z,3.90
2023-03-27T01:19:12.351Z,3.90
2023-03-27T01:22:07.452Z,4.43
2023-03-27T01:24:55.188Z,4.43
2023-03-27T01:27:38.678Z,3.70
2023-03-27T01:30:26.441Z,4.18
2023-03-27T01:33:21.574Z,4.20
2023-03-27T01:35:51.235Z,4.18
2023-03-27T01:38:46.069Z,4.22
2023-03-27T01:41:30.642Z,3.90
2023-03-27T01:44:03.844Z,4.13
2023-03-27T01:46:48.201Z,4.00
2023-03-27T01:49:21.312Z,4.00
2023-03-27T01:51:57.853Z,4.07
2023-03-27T01:54:43.558Z,4.15
2023-03-27T01:57:22.402Z,4.00
2023-03-27T01:59:54.873Z,4.10
2023-03-27T02:02:33.405Z,3.90
2023-03-27T02:05:14.140Z,3.72
2023-03-27T02:07:53.831Z,3.80
2023-03-27T02:10:31.355Z,4.32
2023-03-27T02:13:07.345Z,3.85
2023-03-27T02:18:10.095Z,3.70
2023-03-27T02:20:39.191Z,3.78
2023-03-27T02:23:07.781Z,3.80
2023-03-27T02:25:35.786Z,3.60
2023-03-27T02:28:14.607Z,3.85
2023-03-27T02:31:34.764Z,3.80
2023-03-27T02:34:13.494Z,4.00
2023-03-27T02:37:03.918Z,4.13
2023-03-27T02:39:45.497Z,3.58
2023-03-27T02:42:16.113Z,4.00
2023-03-27T02:45:00.412Z,4.20
2023-03-27T02:47:57.244Z,3.92
2023-03-27T02:53:03.423Z,4.45
2023-03-27T02:55:36.272Z,4.30
2023-03-27T02:58:16.556Z,4.40
2023-03-27T03:00:48.909Z,4.30
2023-03-27T03:03:28.660Z,4.80
2023-03-27T03:05:57.082Z,4.88
2023-03-27T03:08:25.100Z,4.90
2023-03-27T03:10:51.974Z,4.50
2023-03-27T03:13:18.738Z,5.97
2023-03-27T03:15:46.490Z,4.28
2023-03-27T03:18:14.173Z,3.50
2023-03-27T03:20:41.303Z,4.22
2023-03-27T03:23:09.171Z,4.20
2023-03-27T03:25:36.032Z,4.07
2023-03-27T03:28:02.915Z,4.05
2023-03-27T03:30:30.521Z,4.47
2023-03-27T03:32:57.768Z,4.28
2023-03-27T03:35:25.776Z,3.88
2023-03-27T03:37:52.863Z,4.10
2023-03-27T03:40:20.492Z,3.67
2023-03-27T03:42:51.774Z,3.80
2023-03-27T03:45:19.595Z,3.83
2023-03-27T03:47:46.859Z,3.83
2023-03-27T03:50:13.988Z,4.43
2023-03-27T03:52:41.838Z,3.70
2023-03-27T03:55:11.955Z,4.40
2023-03-27T03:57:38.954Z,4.00
2023-03-27T04:00:08.793Z,4.10
2023-03-27T04:02:37.320Z,4.28
2023-03-27T04:05:08.796Z,3.90
2023-03-27T04:07:36.694Z,3.70
2023-03-27T04:10:03.960Z,3.75
2023-03-27T04:12:31.024Z,3.97
2023-03-27T04:14:57.845Z,3.45
2023-03-27T04:17:26.480Z,3.75
2023-03-27T04:19:57.491Z,3.95
2023-03-27T04:22:24.343Z,3.13
2023-03-27T04:24:51.151Z,3.55
2023-03-27T04:27:18.390Z,3.33
2023-03-27T04:29:47.285Z,3.55
2023-03-27T04:32:19.168Z,2.60
2023-03-27T04:34:48.312Z,2.70
2023-03-27T04:37:15.323Z,2.35
2023-03-27T04:39:46.237Z,3.17
2023-03-27T04:42:16.457Z,2.88
2023-03-27T04:44:46.045Z,3.15
2023-03-27T04:47:12.913Z,2.92
2023-03-27T04:49:42.297Z,2.47
2023-03-27T04:52:09.592Z,3.13
2023-03-27T04:54:36.465Z,3.47
2023-03-27T04:57:03.778Z,2.70
2023-03-27T04:59:32.007Z,3.08
2023-03-27T05:01:59.985Z,3.28
2023-03-27T05:04:27.695Z,4.05
2023-03-27T05:06:56.268Z,3.20
2023-03-27T05:09:23.674Z,2.60
2023-03-27T05:11:51.042Z,3.13
2023-03-27T05:14:22.551Z,2.85
2023-03-27T05:16:50.684Z,2.50
2023-03-27T05:19:20.170Z,3.13
2023-03-27T05:21:49.950Z,2.95
2023-03-27T05:24:16.756Z,3.28
2023-03-27T05:26:43.826Z,2.95
2023-03-27T05:29:10.721Z,2.95
2023-03-27T05:31:38.347Z,2.70
2023-03-27T05:34:05.874Z,5.63
2023-03-27T05:36:32.985Z,4.25
2023-03-27T05:38:59.893Z,3.47
2023-03-27T05:41:26.708Z,3.22
2023-03-27T05:43:53.790Z,2.22
2023-03-27T05:46:21.741Z,2.75
2023-03-27T05:48:49.143Z,2.55
2023-03-27T05:51:17.595Z,2.70
2023-03-27T05:53:44.366Z,2.88
2023-03-27T05:56:11.127Z,2.90
2023-03-27T05:58:38.804Z,3.10
2023-03-27T06:01:06.009Z,3.60
2023-03-27T06:03:38.151Z,3.17
2023-03-27T06:06:10.314Z,4.72
2023-03-27T06:08:37.727Z,3.92
2023-03-27T06:11:12.297Z,3.67
2023-03-27T06:13:39.369Z,4.13
2023-03-27T06:16:07.007Z,4.47
2023-03-27T06:18:34.500Z,4.63
2023-03-27T06:21:01.771Z,4.78
2023-03-27T06:23:28.610Z,4.47
2023-03-27T06:25:56.055Z,4.25
2023-03-27T06:28:22.991Z,4.20
2023-03-27T06:30:50.750Z,3.63
2023-03-27T06:33:17.593Z,3.40
2023-03-27T06:35:53.209Z,3.70
2023-03-27T06:38:20.937Z,3.95
2023-03-27T06:40:47.998Z,3.60
2023-03-27T06:43:18.201Z,3.58
2023-03-27T06:45:49.215Z,2.72
2023-03-27T06:48:20.569Z,2.83
2023-03-27T06:50:50.992Z,3.35
2023-03-27T06:53:27.295Z,4.03
2023-03-27T06:55:56.173Z,3.97
2023-03-27T06:58:23.518Z,4.30
2023-03-27T07:00:51.424Z,3.63
2023-03-27T07:03:20.682Z,3.30
2023-03-27T07:05:49.106Z,4.00
2023-03-27T07:08:24.384Z,3.00
2023-03-27T07:11:07.972Z,2.80
2023-03-27T07:13:39.248Z,3.08
2023-03-27T07:16:07.027Z,3.47
2023-03-27T07:18:34.016Z,2.80
2023-03-27T07:21:01.017Z,2.05
2023-03-27T07:23:28.000Z,2.20
2023-03-27T07:25:59.872Z,2.45
2023-03-27T07:28:27.312Z,2.58
2023-03-27T07:30:54.110Z,3.63
2023-03-27T07:33:21.125Z,2.63
2023-03-27T07:35:48.632Z,2.42
2023-03-27T07:38:16.825Z,2.45
2023-03-27T07:40:46.203Z,2.05
2023-03-27T07:43:13.784Z,2.30
2023-03-27T07:45:41.558Z,2.60
2023-03-27T07:48:11.926Z,2.38
2023-03-27T07:50:39.066Z,2.63
2023-03-27T07:53:06.630Z,3.63
2023-03-27T07:55:36.893Z,3.28
2023-03-27T07:58:04.202Z,2.42
2023-03-27T08:00:33.937Z,2.92
2023-03-27T08:03:08.929Z,3.35
2023-03-27T08:05:36.462Z,2.60
2023-03-27T08:08:04.974Z,3.13
2023-03-27T08:10:31.832Z,2.55
2023-03-27T08:12:58.696Z,2.58
2023-03-27T08:15:25.832Z,2.45
2023-03-27T08:17:55.207Z,2.20
2023-03-27T08:20:24.015Z,2.40
2023-03-27T08:22:52.668Z,2.70
2023-03-27T08:25:22.366Z,3.03
2023-03-27T08:27:49.578Z,2.85
2023-03-27T08:30:17.304Z,3.88
2023-03-27T08:32:44.802Z,2.33
2023-03-27T08:35:12.416Z,2.35
2023-03-27T08:37:39.737Z,2.80
2023-03-27T08:40:13.880Z,1.90
2023-03-27T08:42:44.176Z,2.95
2023-03-27T08:45:29.798Z,2.30
2023-03-27T08:48:05.722Z,3.13
2023-03-27T08:50:41.010Z,2.10
2023-03-27T08:53:17.485Z,1.70
2023-03-27T08:55:45.188Z,2.08
2023-03-27T08:58:21.685Z,2.00
2023-03-27T09:01:01.074Z,2.05
2023-03-27T09:03:43.653Z,1.77
2023-03-27T09:06:24.770Z,1.80
2023-03-27T09:09:14.790Z,2.40
2023-03-27T09:12:16.957Z,2.40
2023-03-27T09:14:48.916Z,2.45
2023-03-27T09:17:31.794Z,3.35
2023-03-27T09:20:22.541Z,3.67
2023-03-27T09:23:03.155Z,3.13
2023-03-27T09:25:38.365Z,2.45
2023-03-27T09:28:16.509Z,2.28
2023-03-27T09:30:43.314Z,2.95
2023-03-27T09:33:11.892Z,2.35
2023-03-27T09:35:39.557Z,2.30
2023-03-27T09:38:17.126Z,2.08
2023-03-27T09:40:49.123Z,2.13
2023-03-27T09:43:24.577Z,2.20
2023-03-27T09:45:53.358Z,2.08
2023-03-27T09:48:34.153Z,2.13
2023-03-27T09:51:02.444Z,2.15
2023-03-27T09:53:29.748Z,1.90
2023-03-27T09:56:06.310Z,2.47
2023-03-27T09:58:46.227Z,2.85
2023-03-27T10:01:16.638Z,2.58
2023-03-27T10:03:51.900Z,2.80
2023-03-27T10:06:43.219Z,1.80
2023-03-27T10:09:34.568Z,1.90
2023-03-27T10:12:04.863Z,1.42
2023-03-27T10:14:36.172Z,1.58
2023-03-27T10:17:03.633Z,1.55
2023-03-27T10:19:38.496Z,1.35
2023-03-27T10:22:19.290Z,1.43
2023-03-27T10:24:47.889Z,1.95
2023-03-27T10:27:25.455Z,1.33
2023-03-27T10:29:52.423Z,1.58
2023-03-27T10:32:19.269Z,1.10
2023-03-27T10:34:59.726Z,1.45
2023-03-27T10:37:32.052Z,1.45
2023-03-27T10:40:03.724Z,1.30
2023-03-27T10:42:32.714Z,1.35
2023-03-27T10:45:00.301Z,1.15
2023-03-27T10:47:32.036Z,2.10
2023-03-27T10:50:23.649Z,1.98
2023-03-27T10:53:05.836Z,1.60
2023-03-27T10:55:54.595Z,1.40
2023-03-27T10:58:42.324Z,1.52
2023-03-27T11:01:15.151Z,1.67
2023-03-27T11:03:54.611Z,1.88
2023-03-27T11:06:27.420Z,1.30
2023-03-27T11:09:05.665Z,1.73
2023-03-27T11:11:49.172Z,1.85
2023-03-27T11:14:36.009Z,1.70
2023-03-27T11:17:07.381Z,1.40
2023-03-27T11:19:54.710Z,1.60
2023-03-27T11:22:42.469Z,2.13
2023-03-27T11:25:22.017Z,1.60
2023-03-27T11:28:14.918Z,1.90
2023-03-27T11:31:15.473Z,1.60
2023-03-27T11:34:28.412Z,1.52
2023-03-27T11:37:02.520Z,1.70
2023-03-27T11:39:38.963Z,1.88
2023-03-27T11:42:16.533Z,1.33
2023-03-27T11:44:43.742Z,1.70
2023-03-27T11:47:37.070Z,1.92
2023-03-27T11:50:27.996Z,2.78
2023-03-27T11:53:21.352Z,1.80
2023-03-27T11:56:29.927Z,2.03
2023-03-27T11:59:11.017Z,2.05
2023-03-27T12:01:58.811Z,1.55
2023-03-27T12:05:01.723Z,1.65
2023-03-27T12:07:48.160Z,1.83
2023-03-27T12:10:32.758Z,2.20
2023-03-27T12:13:58.260Z,1.63
2023-03-27T12:16:37.298Z,1.60
2023-03-27T12:22:21.076Z,3.17
2023-03-27T12:25:24.209Z,4.60
2023-03-27T12:28:23.720Z,4.00
2023-03-27T12:31:21.429Z,3.08
2023-03-27T12:34:01.612Z,3.03
2023-03-27T12:36:34.548Z,2.47
2023-03-27T12:39:02.044Z,2.63
2023-03-27T12:41:31.895Z,2.17
2023-03-27T12:44:01.174Z,2.42
2023-03-27T12:46:35.703Z,2.40
2023-03-27T12:49:10.833Z,2.15
2023-03-27T12:51:37.906Z,1.90
2023-03-27T12:54:26.394Z,1.60
2023-03-27T12:57:06.033Z,1.10
2023-03-27T12:59:40.103Z,1.50
2023-03-27T13:02:20.509Z,1.30
2023-03-27T13:05:24.046Z,1.27
2023-03-27T13:08:07.132Z,1.25
2023-03-27T13:10:52.773Z,1.67
2023-03-27T13:13:38.008Z,1.20
2023-03-27T13:16:30.608Z,1.20
2023-03-27T13:19:21.413Z,1.20
2023-03-27T13:21:57.734Z,1.15
2023-03-27T13:24:42.959Z,1.27
2023-03-27T13:27:47.346Z,1.08
2023-03-27T13:30:42.144Z,1.25
2023-03-27T13:33:16.339Z,1.40
2023-03-27T13:35:53.372Z,1.20
2023-03-27T13:38:52.689Z,1.38
2023-03-27T13:41:44.788Z,1.40
2023-03-27T13:44:36.556Z,1.00
2023-03-27T13:47:09.314Z,1.63
2023-03-27T13:49:59.529Z,1.70
2023-03-27T13:52:35.241Z,1.60
2023-03-27T13:58:17.586Z,1.20
2023-03-27T14:01:09.693Z,1.70
2023-03-27T14:04:04.130Z,1.40
2023-03-27T14:06:31.542Z,1.73
2023-03-27T14:09:19.573Z,1.77
2023-03-27T14:12:06.544Z,2.42
2023-03-27T14:15:10.692Z,1.90
2023-03-27T14:18:16.444Z,1.52
2023-03-27T14:20:45.363Z,1.70
2023-03-27T14:23:45.490Z,1.60
2023-03-27T14:26:20.235Z,1.65
2023-03-27T14:28:51.722Z,1.80
2023-03-27T14:31:19.751Z,1.80
2023-03-27T14:34:01.915Z,2.45
2023-03-27T14:36:31.086Z,2.20
2023-03-27T14:39:06.470Z,1.75
2023-03-27T14:41:33.277Z,1.92
2023-03-27T14:44:03.885Z,1.52
2023-03-27T14:46:31.383Z,1.60
2023-03-27T14:48:59.808Z,2.38
2023-03-27T14:51:37.436Z,1.67
2023-03-27T14:54:08.822Z,2.10
2023-03-27T14:56:47.748Z,1.70
2023-03-27T14:59:24.298Z,1.88
2023-03-27T15:01:54.524Z,2.00
2023-03-27T15:04:21.337Z,2.25
2023-03-27T15:06:49.950Z,2.22
2023-03-27T15:09:20.288Z,2.17
2023-03-27T15:11:53.218Z,2.10
2023-03-27T15:14:27.007Z,2.03
2023-03-27T15:16:59.628Z,2.78
2023-03-27T15:19:35.236Z,2.08
2023-03-27T15:22:35.267Z,2.42
2023-03-27T15:25:04.233Z,2.70
2023-03-27T15:27:40.865Z,2.90
2023-03-27T15:30:48.081Z,2.08
2023-03-27T15:35:51.850Z,2.45
2023-03-27T15:38:25.570Z,2.38
2023-03-27T15:41:20.728Z,2.10
2023-03-27T15:43:47.565Z,2.50
2023-03-27T15:46:19.564Z,1.90
2023-03-27T15:48:55.332Z,2.90
2023-03-27T15:51:22.235Z,2.58
2023-03-27T15:53:56.383Z,2.28
2023-03-27T15:56:25.021Z,3.20
2023-03-27T15:58:59.252Z,2.60
2023-03-27T16:01:36.289Z,2.92
2023-03-27T16:04:17.758Z,3.03
2023-03-27T16:06:47.348Z,3.28
2023-03-27T16:09:29.439Z,2.80
2023-03-27T16:11:59.667Z,3.63
2023-03-27T16:14:48.437Z,2.90
2023-03-27T16:17:18.879Z,3.17
2023-03-27T16:20:01.320Z,2.80
2023-03-27T16:22:38.982Z,2.67
2023-03-27T16:25:08.865Z,3.35
2023-03-27T16:27:46.096Z,3.22
2023-03-27T16:30:32.148Z,2.75
2023-03-27T16:33:00.243Z,2.88
2023-03-27T16:35:28.428Z,2.70
2023-03-27T16:37:55.514Z,3.00
2023-03-27T16:40:22.364Z,2.60
2023-03-27T16:42:49.288Z,2.88
2023-03-27T16:45:16.131Z,3.05
2023-03-27T16:47:43.111Z,2.72
2023-03-27T16:50:18.902Z,2.53
2023-03-27T16:52:59.996Z,2.90
2023-03-27T16:55:26.846Z,2.97
2023-03-27T16:57:55.172Z,3.10
2023-03-27T17:00:22.889Z,3.13
2023-03-27T17:02:52.625Z,2.88
2023-03-27T17:05:19.582Z,3.05
2023-03-27T17:07:46.985Z,3.33
2023-03-27T17:10:15.398Z,3.00
2023-03-27T17:12:42.806Z,3.75
2023-03-27T17:15:09.895Z,3.13
2023-03-27T17:17:36.786Z,3.63
2023-03-27T17:20:06.317Z,3.13
2023-03-27T17:22:33.434Z,3.67
2023-03-27T17:25:02.409Z,4.53
2023-03-27T17:27:29.577Z,4.22
2023-03-27T17:29:56.772Z,4.53
2023-03-27T17:32:27.355Z,4.80
2023-03-27T17:34:54.987Z,4.05
2023-03-27T17:37:22.566Z,3.85
2023-03-27T17:39:50.051Z,4.05
2023-03-27T17:42:17.190Z,4.30
2023-03-27T17:44:45.105Z,3.88
2023-03-27T17:47:12.451Z,4.10
2023-03-27T17:49:39.702Z,4.57
2023-03-27T17:52:11.034Z,4.28
2023-03-27T17:54:38.159Z,4.60
2023-03-27T17:57:05.354Z,3.17
2023-03-27T17:59:32.248Z,3.63
2023-03-27T18:01:59.357Z,3.60
2023-03-27T18:04:26.444Z,3.90
2023-03-27T18:06:53.392Z,3.92
2023-03-27T18:09:20.716Z,4.07
2023-03-27T18:11:47.568Z,3.95
2023-03-27T18:14:14.833Z,4.72
2023-03-27T18:16:41.776Z,4.60
2023-03-27T18:19:09.366Z,4.68
2023-03-27T18:21:36.246Z,4.43
2023-03-27T18:24:03.505Z,4.60
2023-03-27T18:26:30.427Z,4.20
2023-03-27T18:28:57.866Z,4.47
2023-03-27T18:31:25.417Z,3.92
2023-03-27T18:33:52.714Z,4.03
2023-03-27T18:36:20.445Z,3.92
2023-03-27T18:38:49.589Z,4.28
2023-03-27T18:41:16.608Z,3.33
2023-03-27T18:43:43.493Z,4.70
2023-03-27T18:46:16.424Z,4.13
2023-03-27T18:48:44.981Z,3.33
2023-03-27T18:51:13.744Z,4.03
2023-03-27T18:53:40.530Z,4.05
2023-03-27T18:56:08.208Z,3.53
2023-03-27T18:58:36.061Z,3.10
2023-03-27T19:01:08.351Z,3.47
2023-03-27T19:03:36.386Z,3.22
2023-03-27T19:06:05.730Z,3.70
2023-03-27T19:08:33.329Z,3.17
2023-03-27T19:11:00.446Z,2.63
2023-03-27T19:13:27.423Z,2.78
2023-03-27T19:15:54.252Z,2.00
2023-03-27T19:18:21.228Z,1.77
2023-03-27T19:20:48.295Z,1.50
2023-03-27T19:23:16.277Z,1.85
2023-03-27T19:25:47.544Z,1.77
2023-03-27T19:28:14.727Z,1.73
2023-03-27T19:30:41.985Z,2.22
2023-03-27T19:33:09.167Z,2.45
2023-03-27T19:35:35.983Z,2.65
2023-03-27T19:38:03.238Z,2.42
2023-03-27T19:40:30.286Z,2.80
2023-03-27T19:42:57.124Z,2.60
2023-03-27T19:45:23.951Z,2.97
2023-03-27T19:47:50.890Z,2.55
2023-03-27T19:50:18.000Z,2.63
2023-03-27T19:52:49.434Z,2.70
2023-03-27T19:55:25.397Z,2.80
2023-03-27T19:57:54.809Z,3.03
2023-03-27T20:00:21.790Z,2.72
2023-03-27T20:02:48.667Z,3.13
2023-03-27T20:05:15.611Z,2.85
2023-03-27T20:07:42.461Z,2.92
2023-03-27T20:10:09.788Z,2.80
2023-03-27T20:12:36.590Z,2.95
2023-03-27T20:15:11.482Z,3.13
2023-03-27T20:17:39.257Z,2.83
2023-03-27T20:20:07.593Z,2.78
2023-03-27T20:22:40.692Z,3.08
2023-03-27T20:25:14.522Z,2.97
2023-03-27T20:27:41.476Z,3.15
2023-03-27T20:30:14.051Z,3.33
2023-03-27T20:32:42.101Z,3.40
2023-03-27T20:35:20.519Z,3.50
2023-03-27T20:37:50.762Z,3.88
2023-03-27T20:40:18.811Z,3.28
2023-03-27T20:42:49.213Z,3.13
2023-03-27T20:45:19.326Z,3.92
2023-03-27T20:47:48.771Z,3.97
2023-03-27T20:50:16.664Z,3.75
2023-03-27T20:52:48.370Z,3.83
2023-03-27T20:55:22.874Z,4.25
2023-03-27T20:57:59.516Z,4.45
2023-03-27T21:00:26.682Z,4.10
2023-03-27T21:02:53.597Z,4.22
2023-03-27T21:05:20.944Z,4.25
2023-03-27T21:07:47.743Z,4.07
2023-03-27T21:10:14.877Z,4.13
2023-03-27T21:12:42.842Z,4.18
2023-03-27T21:15:10.367Z,4.40
2023-03-27T21:17:37.144Z,4.30
2023-03-27T21:20:05.953Z,4.47
2023-03-27T21:22:32.743Z,4.13
2023-03-27T21:24:59.509Z,4.13
2023-03-27T21:27:26.357Z,4.22
2023-03-27T21:29:53.170Z,3.35
2023-03-27T21:32:19.934Z,3.70
2023-03-27T21:34:46.779Z,4.45
2023-03-27T21:37:13.987Z,3.80
2023-03-27T21:39:40.935Z,4.03
2023-03-27T21:42:07.712Z,3.60
2023-03-27T21:44:34.622Z,3.88
2023-03-27T21:47:01.619Z,3.58
2023-03-27T21:49:28.590Z,3.67
2023-03-27T21:51:55.421Z,3.60
2023-03-27T21:54:22.794Z,4.20
2023-03-27T21:56:49.664Z,3.85
2023-03-27T21:59:16.604Z,4.22
2023-03-27T22:01:43.400Z,3.80
2023-03-27T22:04:10.472Z,3.88
2023-03-27T22:06:37.472Z,3.72
2023-03-27T22:09:04.375Z,3.88
2023-03-27T22:11:31.341Z,3.70
2023-03-27T22:13:59.256Z,3.47
2023-03-27T22:16:26.118Z,3.78
2023-03-27T22:18:53.001Z,3.60
2023-03-27T22:21:25.664Z,3.75
2023-03-27T22:23:53.802Z,4.10
2023-03-27T22:26:24.166Z,4.05
2023-03-27T22:28:52.610Z,4.10
2023-03-27T22:31:21.286Z,4.40
2023-03-27T22:33:48.856Z,3.88
2023-03-27T22:36:15.819Z,3.88
2023-03-27T22:38:43.462Z,3.67
2023-03-27T22:41:11.807Z,3.95
2023-03-27T22:43:39.101Z,4.47
2023-03-27T22:46:09.719Z,3.97
2023-03-27T22:48:36.507Z,3.78
2023-03-27T22:51:04.024Z,4.00
2023-03-27T22:53:33.595Z,4.00
2023-03-27T22:56:01.882Z,4.00
2023-03-27T22:58:30.033Z,3.72
2023-03-27T23:00:56.930Z,3.75
2023-03-27T23:03:25.937Z,3.70
2023-03-27T23:05:54.539Z,3.80
2023-03-27T23:08:24.118Z,4.40
2023-03-27T23:10:59.267Z,3.78
2023-03-27T23:13:27.548Z,4.10
2023-03-27T23:15:54.878Z,3.80
2023-03-27T23:18:24.708Z,4.43
2023-03-27T23:20:56.190Z,3.70
2023-03-27T23:23:23.551Z,4.18
2023-03-27T23:25:50.975Z,3.90
2023-03-27T23:28:17.860Z,4.10
2023-03-27T23:30:53.483Z,3.85
2023-03-27T23:33:21.817Z,4.32
2023-03-27T23:35:48.736Z,3.67
2023-03-27T23:38:15.557Z,3.78
2023-03-27T23:40:42.402Z,3.55
2023-03-27T23:43:09.208Z,5.47
2023-03-27T23:45:36.026Z,3.78
2023-03-27T23:48:03.655Z,4.18
2023-03-27T23:50:30.519Z,3.67
2023-03-27T23:52:57.303Z,4.13
2023-03-27T23:55:24.120Z,4.03
2023-03-27T23:57:51.008Z,3.88
